Time;durP1;ratioP1;P1;durP2;ratioP2;P2;SDS_P1;SDS_P2;PMS_P1;PMS_P2;Temp;Humidity;BMP_temperature;BMP_pressure;BME280_temperature;BME280_humidity;BME280_pressure;Samples;Min_cycle;Max_cycle;Signal;HPM_P1;HPM_P2
2022/06/22 00:01:41;;;;;;;4.38;2.60;;;23.20;84.30;;;;;;5117066;28;20371;-67
2022/06/22 00:04:13;;;;;;;6.13;2.78;;;23.20;84.80;;;;;;5117076;28;20095;-67
2022/06/22 00:07:13;;;;;;;8.35;2.70;;;23.10;84.50;;;;;;5117073;28;20031;-66
2022/06/22 00:09:40;;;;;;;5.90;2.22;;;23.10;84.00;;;;;;5094356;28;20484;-67
2022/06/22 00:12:17;;;;;;;6.10;2.30;;;23.20;83.00;;;;;;5081397;28;20571;-67
2022/06/22 00:14:48;;;;;;;6.10;2.30;;;23.10;82.10;;;;;;5098128;28;20024;-67
2022/06/22 00:17:25;;;;;;;7.57;2.00;;;23.00;81.20;;;;;;5097309;28;20040;-67
2022/06/22 00:19:59;;;;;;;2.55;1.90;;;22.90;81.70;;;;;;5094406;28;20040;-67
2022/06/22 00:22:25;;;;;;;4.15;2.10;;;22.80;81.70;;;;;;5076958;28;20524;-67
2022/06/22 00:25:22;;;;;;;3.63;2.30;;;22.70;81.50;;;;;;5076964;28;20119;-67
2022/06/22 00:27:48;;;;;;;4.43;1.90;;;22.70;81.50;;;;;;5090936;28;20046;-68
2022/06/22 00:30:15;;;;;;;;;;;22.70;81.00;;;;;;5094861;28;20024;-67
2022/06/22 00:32:54;;;;;;;9.45;1.83;;;22.60;81.20;;;;;;5093731;28;20001;-67
2022/06/22 00:35:47;;;;;;;6.93;2.00;;;22.60;81.60;;;;;;5093538;28;20082;-67
2022/06/22 00:38:18;;;;;;;5.28;2.00;;;22.60;81.50;;;;;;5093615;28;20032;-67
2022/06/22 00:40:46;;;;;;;3.25;2.20;;;22.50;81.20;;;;;;5092890;28;20036;-67
2022/06/22 00:43:15;;;;;;;4.95;2.30;;;22.50;81.30;;;;;;5093723;28;20147;-67
2022/06/22 00:45:42;;;;;;;3.78;1.75;;;22.50;81.50;;;;;;5109169;28;20141;-66
2022/06/22 00:48:20;;;;;;;4.35;1.90;;;22.40;81.00;;;;;;5115647;28;20027;-66
2022/06/22 00:51:06;;;;;;;3.85;2.20;;;22.20;81.50;;;;;;5115361;28;20020;-67
2022/06/22 00:53:52;;;;;;;7.78;1.92;;;22.10;81.60;;;;;;5115660;28;20486;-67
2022/06/22 00:56:36;;;;;;;4.40;2.15;;;22.10;81.90;;;;;;5114572;28;20027;-66
2022/06/22 00:59:30;;;;;;;5.43;2.30;;;22.00;82.20;;;;;;5115380;28;20024;-68
2022/06/22 01:02:01;;;;;;;3.08;1.83;;;21.80;82.80;;;;;;5112722;28;20036;-66
2022/06/22 01:05:09;;;;;;;9.85;2.10;;;21.70;83.50;;;;;;5115320;28;20148;-66
2022/06/22 01:07:42;;;;;;;4.65;2.10;;;21.60;84.00;;;;;;5115410;28;20024;-66
2022/06/22 01:10:43;;;;;;;5.85;2.03;;;21.50;84.60;;;;;;5113620;28;20036;-66
2022/06/22 01:13:32;;;;;;;3.28;2.10;;;21.50;85.00;;;;;;5092585;28;20036;-66
2022/06/22 01:16:05;;;;;;;7.30;2.70;;;21.50;85.20;;;;;;5086993;28;20036;-67
2022/06/22 01:18:40;;;;;;;7.10;2.00;;;21.50;85.20;;;;;;5092620;28;20035;-66
2022/06/22 01:21:46;;;;;;;3.20;2.42;;;21.50;85.20;;;;;;5092269;28;20118;-66
2022/06/22 01:24:34;;;;;;;3.60;1.90;;;21.50;85.20;;;;;;5051833;28;20150;-67
2022/06/22 01:27:24;;;;;;;5.28;1.95;;;21.60;85.30;;;;;;5052072;28;20032;-67
2022/06/22 01:29:56;;;;;;;3.88;2.33;;;21.60;85.20;;;;;;5052222;28;20037;-66
2022/06/22 01:32:35;;;;;;;12.85;2.40;;;21.60;84.70;;;;;;5052045;28;20029;-66
2022/06/22 01:35:13;;;;;;;4.47;1.75;;;21.60;84.50;;;;;;5052171;28;20028;-66
2022/06/22 01:37:39;;;;;;;8.48;2.15;;;21.60;84.60;;;;;;5052479;28;20041;-67
2022/06/22 01:40:04;;;;;;;;;;;21.70;84.10;;;;;;5053080;28;20039;-66
2022/06/22 01:42:37;;;;;;;3.38;1.55;;;21.80;83.50;;;;;;5095584;22;19920;-63
2022/06/22 01:45:10;;;;;;;5.45;1.92;;;21.70;83.60;;;;;;5093772;28;20020;-63
2022/06/22 01:47:45;;;;;;;6.57;1.95;;;21.60;84.00;;;;;;5094040;28;20028;-63
2022/06/22 01:50:26;;;;;;;3.13;1.65;;;21.60;84.20;;;;;;5093977;28;20039;-62
2022/06/22 01:53:09;;;;;;;3.42;1.50;;;21.60;84.40;;;;;;5093983;28;20023;-60
2022/06/22 01:55:53;;;;;;;6.28;2.22;;;21.50;84.40;;;;;;5093950;28;20031;-62
2022/06/22 01:58:19;;;;;;;8.85;1.83;;;21.40;85.20;;;;;;5093985;28;20077;-61
2022/06/22 02:00:50;;;;;;;4.03;1.80;;;21.30;85.50;;;;;;5094055;28;20361;-63
2022/06/22 02:03:29;;;;;;;2.88;1.80;;;21.30;85.60;;;;;;5075453;28;20032;-63
2022/06/22 02:08:58;;;;;;;4.70;2.08;;;21.30;85.20;;;;;;5093704;28;20030;-62
2022/06/22 02:11:30;;;;;;;2.80;1.80;;;21.10;85.40;;;;;;5093763;28;20060;-58
2022/06/22 02:14:21;;;;;;;4.38;2.25;;;21.00;85.70;;;;;;5094051;28;20066;-61
2022/06/22 02:16:50;;;;;;;3.53;1.90;;;21.00;86.00;;;;;;5092961;28;20066;-62
2022/06/22 02:19:18;;;;;;;15.07;2.40;;;21.00;86.20;;;;;;5093747;28;20016;-63
2022/06/22 02:22:03;;;;;;;3.65;2.40;;;20.90;86.50;;;;;;5093578;28;20027;-63
2022/06/22 02:24:39;;;;;;;2.85;2.30;;;20.90;86.70;;;;;;5051385;28;20025;-63
2022/06/22 02:27:10;;;;;;;5.80;2.33;;;20.90;87.40;;;;;;5051654;28;20029;-60
2022/06/22 02:29:48;;;;;;;4.70;2.35;;;20.80;88.00;;;;;;5051727;28;20037;-61
2022/06/22 02:32:41;;;;;;;2.75;1.80;;;20.80;88.60;;;;;;5051389;28;20508;-61
2022/06/22 02:35:09;;;;;;;4.28;2.15;;;20.60;89.40;;;;;;5032370;28;20037;-62
2022/06/22 02:37:46;;;;;;;5.60;2.40;;;20.50;90.00;;;;;;5051253;28;20596;-60
2022/06/22 02:40:14;;;;;;;;;;;20.40;90.20;;;;;;5052080;28;20037;-61
2022/06/22 02:45:24;;;;;;;6.40;2.20;;;20.20;90.60;;;;;;5051551;28;20511;-64
2022/06/22 02:47:58;;;;;;;8.57;2.65;;;20.10;90.70;;;;;;5051423;28;20079;-63
2022/06/22 02:50:43;;;;;;;5.20;2.65;;;20.00;90.60;;;;;;5034013;28;20028;-63
2022/06/22 02:53:25;;;;;;;6.68;1.95;;;20.00;90.60;;;;;;5051677;28;20112;-63
2022/06/22 02:55:52;;;;;;;4.60;2.20;;;20.00;90.50;;;;;;5079149;28;20074;-61
2022/06/22 02:58:33;;;;;;;3.42;2.08;;;20.10;90.40;;;;;;5095031;28;20047;-60
2022/06/22 03:01:20;;;;;;;4.05;1.77;;;20.10;90.10;;;;;;5097747;28;20052;-63
2022/06/22 03:03:48;;;;;;;;;;;20.10;90.00;;;;;;5097228;28;20085;-61
2022/06/22 03:06:16;;;;;;;5.35;2.20;;;20.00;90.00;;;;;;5097778;28;19904;-59
2022/06/22 03:08:42;;;;;;;3.45;1.92;;;20.00;90.00;;;;;;5097565;28;20051;-61
2022/06/22 03:11:10;;;;;;;3.65;1.85;;;20.00;90.30;;;;;;5078820;28;20500;-63
2022/06/22 03:13:44;;;;;;;2.90;2.15;;;20.00;90.10;;;;;;5079175;28;20032;-62
2022/06/22 03:16:20;;;;;;;3.08;1.80;;;20.00;90.20;;;;;;5078992;28;20052;-62
2022/06/22 03:18:50;;;;;;;3.58;1.88;;;20.00;90.20;;;;;;5097504;28;20350;-63
2022/06/22 03:21:16;;;;;;;4.85;1.90;;;20.10;90.30;;;;;;5078641;28;20028;-62
2022/06/22 03:24:00;;;;;;;2.60;1.88;;;20.00;90.00;;;;;;5096693;28;20028;-62
2022/06/22 03:26:30;;;;;;;2.47;2.15;;;20.00;90.00;;;;;;5097292;28;20020;-62
2022/06/22 03:29:37;;;;;;;3.65;2.20;;;20.10;90.10;;;;;;5096958;28;20038;-62
2022/06/22 03:32:13;;;;;;;3.55;1.70;;;20.10;89.70;;;;;;5077519;28;20036;-59
2022/06/22 03:34:44;;;;;;;4.13;1.90;;;20.10;89.40;;;;;;5096857;28;20024;-63
2022/06/22 03:37:34;;;;;;;5.97;2.85;;;20.10;89.50;;;;;;5078557;28;20027;-62
2022/06/22 03:40:08;;;;;;;5.43;1.80;;;20.20;89.60;;;;;;5096677;28;20464;-63
2022/06/22 03:42:40;;;;;;;6.15;1.70;;;20.30;88.40;;;;;;5096451;28;20032;-62
2022/06/22 03:45:14;;;;;;;2.50;1.73;;;20.30;88.40;;;;;;5096444;28;20474;-63
2022/06/22 03:47:40;;;;;;;5.15;1.90;;;20.40;88.40;;;;;;5096548;28;20099;-59
2022/06/22 03:50:14;;;;;;;4.20;1.80;;;20.40;88.20;;;;;;5096172;28;20598;-62
2022/06/22 03:52:58;;;;;;;2.63;1.80;;;20.40;87.50;;;;;;5096093;28;20028;-62
2022/06/22 03:55:32;;;;;;;3.08;1.90;;;20.40;87.80;;;;;;5096196;28;20024;-62
2022/06/22 03:58:00;;;;;;;2.67;1.80;;;20.30;87.80;;;;;;5096313;28;20027;-62
2022/06/22 04:00:26;;;;;;;3.70;1.90;;;20.30;88.00;;;;;;5095877;28;20041;-62
2022/06/22 04:02:52;;;;;;;3.40;1.40;;;20.30;88.30;;;;;;5095971;28;20484;-63
2022/06/22 04:05:25;;;;;;;5.00;2.10;;;20.30;88.50;;;;;;5096301;28;20483;-62
2022/06/22 04:07:54;;;;;;;3.72;1.88;;;20.40;87.70;;;;;;5096080;28;20024;-70
2022/06/22 04:10:31;;;;;;;5.55;1.65;;;20.50;87.50;;;;;;5095749;28;20494;-67
2022/06/22 04:12:58;;;;;;;3.28;1.85;;;20.50;87.10;;;;;;5096270;28;20024;-66
2022/06/22 04:15:39;;;;;;;3.20;1.70;;;20.50;87.30;;;;;;5096445;28;20384;-68
2022/06/22 04:18:14;;;;;;;5.80;1.90;;;20.50;87.60;;;;;;5096355;28;20078;-68
2022/06/22 04:20:54;;;;;;;2.63;1.60;;;20.50;88.30;;;;;;5078499;28;20028;-67
2022/06/22 04:23:38;;;;;;;3.30;1.95;;;20.50;89.00;;;;;;5096574;28;20481;-67
2022/06/22 04:26:39;;;;;;;3.40;2.20;;;20.50;89.10;;;;;;5079123;28;20051;-67
2022/06/22 04:29:13;;;;;;;2.70;2.08;;;20.50;89.30;;;;;;5078397;28;20093;-67
2022/06/22 04:31:52;;;;;;;3.72;1.90;;;20.50;89.40;;;;;;5097374;28;20106;-68
2022/06/22 04:35:06;;;;;;;4.88;2.00;;;20.60;89.40;;;;;;5078087;28;20028;-67
2022/06/22 04:37:50;;;;;;;5.05;2.00;;;20.60;89.80;;;;;;5062983;28;20096;-67
2022/06/22 04:40:30;;;;;;;10.73;2.65;;;20.60;89.90;;;;;;5095995;28;20484;-67
2022/06/22 04:43:00;;;;;;;2.70;1.95;;;20.50;90.20;;;;;;5095623;28;20051;-65
2022/06/22 04:45:46;;;;;;;3.58;2.00;;;20.50;90.30;;;;;;5078118;28;20032;-68
2022/06/22 04:48:15;;;;;;;3.58;1.80;;;20.50;90.50;;;;;;5095312;28;20377;-68
2022/06/22 04:50:44;;;;;;;3.83;1.90;;;20.50;90.30;;;;;;5096195;28;20035;-67
2022/06/22 04:53:36;;;;;;;5.03;2.05;;;20.60;90.30;;;;;;5096126;28;20031;-67
2022/06/22 04:56:06;;;;;;;5.05;1.92;;;20.50;90.00;;;;;;5078529;28;20051;-67
2022/06/22 04:58:52;;;;;;;4.80;1.95;;;20.50;90.00;;;;;;5096466;28;20483;-68
2022/06/22 05:01:36;;;;;;;5.78;1.92;;;20.60;89.80;;;;;;5096248;28;20028;-67
2022/06/22 05:04:11;;;;;;;3.60;2.03;;;20.60;90.10;;;;;;5078407;28;20035;-66
2022/06/22 05:06:43;;;;;;;2.90;1.80;;;20.60;88.90;;;;;;5097754;28;20034;-67
2022/06/22 05:09:26;;;;;;;3.90;1.90;;;20.50;89.10;;;;;;5097486;28;20035;-67
2022/06/22 05:11:52;;;;;;;3.67;1.98;;;20.30;89.90;;;;;;5079385;28;20047;-67
2022/06/22 05:14:26;;;;;;;3.80;1.58;;;20.30;90.10;;;;;;5079106;28;20139;-67
2022/06/22 05:17:00;;;;;;;3.40;1.92;;;20.40;90.00;;;;;;5097307;28;20063;-66
2022/06/22 05:19:51;;;;;;;4.55;2.03;;;20.50;89.50;;;;;;5096435;28;20547;-67
2022/06/22 05:22:18;;;;;;;4.05;1.90;;;20.60;89.30;;;;;;5094865;28;20065;-66
2022/06/22 05:24:45;;;;;;;;;;;20.90;89.20;;;;;;5094817;28;20044;-67
2022/06/22 05:27:19;;;;;;;2.47;1.55;;;21.10;88.10;;;;;;5094585;28;19980;-66
2022/06/22 05:29:49;;;;;;;6.25;2.10;;;21.00;88.00;;;;;;5095137;28;20073;-67
2022/06/22 05:32:23;;;;;;;7.80;2.03;;;21.20;87.60;;;;;;5094575;28;20495;-66
2022/06/22 05:34:53;;;;;;;5.05;1.88;;;21.20;87.40;;;;;;5094605;28;20107;-66
2022/06/22 05:37:32;;;;;;;4.90;1.67;;;21.20;87.50;;;;;;5094585;28;20460;-67
2022/06/22 05:39:59;;;;;;;6.38;1.83;;;21.10;87.90;;;;;;5094386;28;20055;-67
2022/06/22 05:42:26;;;;;;;4.10;1.85;;;21.10;87.90;;;;;;5093937;28;20368;-66
2022/06/22 05:44:53;;;;;;;3.15;2.05;;;21.10;87.70;;;;;;5094022;28;20035;-66
2022/06/22 05:47:26;;;;;;;6.18;2.00;;;21.10;87.80;;;;;;5094003;28;20046;-66
2022/06/22 05:50:08;;;;;;;7.85;2.40;;;21.40;87.10;;;;;;5093877;28;20048;-65
2022/06/22 05:52:54;;;;;;;4.30;2.03;;;21.60;86.50;;;;;;5076090;28;20031;-67
2022/06/22 05:55:35;;;;;;;5.35;2.15;;;21.70;86.40;;;;;;5094471;28;20028;-67
2022/06/22 05:58:10;;;;;;;4.13;2.20;;;21.80;86.00;;;;;;5094304;28;20043;-67
2022/06/22 06:00:47;;;;;;;7.90;2.40;;;21.80;84.70;;;;;;5094005;28;20038;-66
2022/06/22 06:03:28;;;;;;;4.63;2.33;;;21.70;85.10;;;;;;5075456;28;20031;-67
2022/06/22 06:06:15;;;;;;;3.42;2.00;;;21.60;85.70;;;;;;5093867;28;20430;-66
2022/06/22 06:08:50;;;;;;;5.38;1.98;;;21.80;85.70;;;;;;5093903;28;20027;-66
2022/06/22 06:11:23;;;;;;;6.85;2.28;;;21.80;86.00;;;;;;5093531;28;20028;-67
2022/06/22 06:13:59;;;;;;;3.75;2.15;;;21.80;86.30;;;;;;5094106;28;20027;-67
2022/06/22 06:16:40;;;;;;;5.30;1.95;;;21.80;86.40;;;;;;5075384;28;20032;-64
2022/06/22 06:19:07;;;;;;;5.50;2.17;;;21.80;86.30;;;;;;5093513;28;20031;-62
2022/06/22 06:21:36;;;;;;;3.97;2.05;;;21.60;86.30;;;;;;5093172;28;20024;-62
2022/06/22 06:24:15;;;;;;;4.72;1.75;;;21.40;87.20;;;;;;5075173;28;20094;-62
2022/06/22 06:29:56;;;;;;;5.40;2.40;;;21.50;87.10;;;;;;5094050;28;20035;-62
2022/06/22 06:32:57;;;;;;;8.30;2.25;;;21.60;87.10;;;;;;5093531;28;20043;-63
2022/06/22 06:35:36;;;;;;;4.60;2.20;;;21.50;87.90;;;;;;5092013;28;20032;-64
2022/06/22 06:38:12;;;;;;;5.45;2.08;;;21.50;88.60;;;;;;5096216;28;20054;-63
2022/06/22 06:40:49;;;;;;;3.78;2.03;;;21.50;89.10;;;;;;5075303;28;20392;-62
2022/06/22 06:43:24;;;;;;;;;;;21.60;89.20;;;;;;5093691;28;20039;-63
2022/06/22 06:45:52;;;;;;;3.50;1.90;;;21.40;88.90;;;;;;5094246;28;19904;-64
2022/06/22 06:48:23;;;;;;;7.38;1.90;;;21.50;89.30;;;;;;5093303;28;20020;-63
2022/06/22 06:50:50;;;;;;;3.47;1.88;;;21.40;89.00;;;;;;5093419;28;20024;-63
2022/06/22 06:53:30;;;;;;;6.53;1.83;;;21.50;89.10;;;;;;5093038;28;20119;-64
2022/06/22 06:56:17;;;;;;;4.40;1.73;;;21.50;90.20;;;;;;5093539;28;20016;-65
2022/06/22 06:58:55;;;;;;;2.13;1.77;;;21.50;90.20;;;;;;5093454;28;20025;-62
2022/06/22 07:01:39;;;;;;;7.72;2.35;;;21.60;90.40;;;;;;5093310;28;20099;-64
2022/06/22 07:04:14;;;;;;;3.33;1.80;;;21.60;90.70;;;;;;5093551;28;20080;-64
2022/06/22 07:06:40;;;;;;;3.03;1.92;;;21.70;90.80;;;;;;5093242;28;20092;-62
2022/06/22 07:09:11;;;;;;;;;;;21.70;90.20;;;;;;5093576;28;20028;-62
2022/06/22 07:11:48;;;;;;;4.38;1.92;;;21.60;90.40;;;;;;5093185;28;20041;-62
2022/06/22 07:14:27;;;;;;;4.07;2.13;;;21.70;90.90;;;;;;5093254;28;20020;-63
2022/06/22 07:16:58;;;;;;;3.70;1.77;;;21.80;91.00;;;;;;5093402;28;20373;-63
2022/06/22 07:19:40;;;;;;;4.70;2.28;;;21.90;90.80;;;;;;5092998;28;20020;-63
2022/06/22 07:22:41;;;;;;;4.32;2.13;;;22.00;90.50;;;;;;5093171;28;20020;-63
2022/06/22 07:25:20;;;;;;;4.60;2.30;;;22.00;90.00;;;;;;5030751;28;20454;-62
2022/06/22 07:27:53;;;;;;;3.50;1.90;;;21.90;89.80;;;;;;5030938;28;20442;-63
2022/06/22 07:30:40;;;;;;;4.10;2.05;;;21.90;90.00;;;;;;5031065;28;20033;-63
2022/06/22 07:33:12;;;;;;;;;;;21.70;90.40;;;;;;5014618;28;20022;-62
2022/06/22 07:35:56;;;;;;;3.28;1.85;;;21.60;90.60;;;;;;5030855;28;19909;-62
2022/06/22 07:38:51;;;;;;;3.97;2.22;;;21.30;91.00;;;;;;5030788;28;20107;-62
2022/06/22 07:41:20;;;;;;;7.18;2.53;;;21.30;91.20;;;;;;5030851;28;20107;-62
2022/06/22 07:44:03;;;;;;;4.88;2.38;;;21.20;91.20;;;;;;5088870;23;20118;-65
2022/06/22 07:46:43;;;;;;;6.30;2.63;;;21.20;91.30;;;;;;5078053;28;20373;-66
2022/06/22 07:49:18;;;;;;;6.03;2.30;;;21.30;91.60;;;;;;5078065;28;20016;-65
2022/06/22 07:51:50;;;;;;;8.77;2.75;;;21.40;91.20;;;;;;5096254;28;20035;-67
2022/06/22 07:54:22;;;;;;;4.82;2.50;;;21.50;90.90;;;;;;5077423;28;20020;-66
2022/06/22 07:57:08;;;;;;;5.78;2.08;;;21.60;90.80;;;;;;5096179;28;20054;-66
2022/06/22 07:59:38;;;;;;;4.10;2.05;;;21.70;90.90;;;;;;5096515;28;20027;-67
2022/06/22 08:02:10;;;;;;;5.78;2.15;;;21.80;90.80;;;;;;5096372;28;20031;-66
2022/06/22 08:04:46;;;;;;;5.70;2.20;;;21.90;90.60;;;;;;5077576;28;20156;-66
2022/06/22 08:07:20;;;;;;;7.13;2.13;;;21.70;90.40;;;;;;5095739;28;20174;-66
2022/06/22 08:10:24;;;;;;;4.32;2.10;;;21.40;90.70;;;;;;5077470;28;20028;-66
2022/06/22 08:13:04;;;;;;;5.38;2.28;;;21.40;90.80;;;;;;5077653;28;20028;-66
2022/06/22 08:15:37;;;;;;;5.13;1.95;;;21.40;90.80;;;;;;5096543;28;20381;-66
2022/06/22 08:18:03;;;;;;;4.78;2.15;;;21.50;90.70;;;;;;5095815;28;20016;-66
2022/06/22 08:20:37;;;;;;;5.25;2.30;;;21.70;90.60;;;;;;5095597;28;20379;-67
2022/06/22 08:23:06;;;;;;;3.85;2.08;;;21.70;90.50;;;;;;5095795;28;20031;-65
2022/06/22 08:25:32;;;;;;;3.80;2.33;;;21.70;90.50;;;;;;5095588;28;20027;-66
2022/06/22 08:27:59;;;;;;;9.55;6.45;;;21.90;90.40;;;;;;5077270;28;20028;-66
2022/06/22 08:30:25;;;;;;;18.70;13.95;;;22.00;90.30;;;;;;5095388;28;20382;-67
2022/06/22 08:32:58;;;;;;;5.00;2.55;;;22.10;90.20;;;;;;5077896;28;20016;-66
2022/06/22 08:35:35;;;;;;;4.20;2.10;;;22.20;90.00;;;;;;5095405;28;20094;-65
2022/06/22 08:38:17;;;;;;;2.65;2.10;;;22.20;90.10;;;;;;5095495;28;20428;-66
2022/06/22 08:41:12;;;;;;;8.65;4.25;;;22.30;90.00;;;;;;5095142;28;20024;-66
2022/06/22 08:43:54;;;;;;;5.78;2.45;;;22.20;90.10;;;;;;5077005;28;20039;-66
2022/06/22 08:46:30;;;;;;;5.30;2.47;;;22.10;89.70;;;;;;5095481;28;20115;-66
2022/06/22 08:49:07;;;;;;;3.10;2.20;;;22.10;90.00;;;;;;5095568;28;20020;-66
2022/06/22 08:52:17;;;;;;;5.80;2.70;;;22.10;90.20;;;;;;5076860;28;20028;-66
2022/06/22 08:55:07;;;;;;;6.35;2.53;;;22.10;90.10;;;;;;5060366;28;20122;-66
2022/06/22 08:57:47;;;;;;;8.20;2.35;;;22.10;90.20;;;;;;5094719;28;20058;-66
2022/06/22 09:00:40;;;;;;;7.88;2.55;;;22.00;90.20;;;;;;5095191;28;20020;-67
2022/06/22 09:03:08;;;;;;;5.90;2.28;;;22.00;90.60;;;;;;5096874;28;20038;-66
2022/06/22 09:05:47;;;;;;;7.35;3.08;;;22.00;90.80;;;;;;5096327;28;20024;-66
2022/06/22 09:08:21;;;;;;;5.63;2.67;;;22.00;91.80;;;;;;5095509;28;20540;-66
2022/06/22 09:11:12;;;;;;;5.57;2.90;;;22.10;92.40;;;;;;5094605;28;20038;-65
2022/06/22 09:13:56;;;;;;;6.15;2.78;;;22.00;93.50;;;;;;5094773;28;20016;-66
2022/06/22 09:16:42;;;;;;;10.15;3.42;;;21.90;94.80;;;;;;5094505;28;20035;-65
2022/06/22 09:19:15;;;;;;;11.85;3.53;;;21.70;95.40;;;;;;5076253;28;20020;-65
2022/06/22 09:21:59;;;;;;;5.95;3.22;;;21.60;95.20;;;;;;5076274;28;20024;-65
2022/06/22 09:24:58;;;;;;;5.93;2.70;;;21.50;97.00;;;;;;5094351;28;20023;-66
2022/06/22 09:27:44;;;;;;;3.97;2.80;;;21.40;97.10;;;;;;5094445;28;20024;-67
2022/06/22 09:30:29;;;;;;;8.80;3.45;;;21.50;96.80;;;;;;5076021;28;20031;-65
2022/06/22 09:33:27;;;;;;;6.00;3.53;;;21.40;98.40;;;;;;5094085;28;20039;-66
2022/06/22 09:36:30;;;;;;;9.63;3.40;;;21.20;98.80;;;;;;5083518;28;20109;-66
2022/06/22 09:38:59;;;;;;;8.10;3.15;;;21.00;99.90;;;;;;5076115;28;20024;-66
2022/06/22 09:42:03;;;;;;;6.15;3.15;;;20.90;99.90;;;;;;5094297;28;20021;-66
2022/06/22 09:45:14;;;;;;;7.28;3.58;;;20.90;99.90;;;;;;5075699;28;20077;-66
2022/06/22 09:47:54;;;;;;;7.80;3.47;;;20.90;99.90;;;;;;5091253;28;20059;-66
2022/06/22 09:50:45;;;;;;;11.15;3.63;;;21.00;99.90;;;;;;5095020;28;20480;-66
2022/06/22 09:53:38;;;;;;;8.13;3.28;;;21.00;99.90;;;;;;5094305;28;20035;-66
2022/06/22 09:56:48;;;;;;;14.23;3.65;;;21.10;99.90;;;;;;5075815;28;20024;-66
2022/06/22 09:59:44;;;;;;;48.70;33.38;;;21.00;99.90;;;;;;5075937;28;20080;-67
2022/06/22 10:02:23;;;;;;;6.57;3.33;;;21.10;99.90;;;;;;5075641;28;20032;-67
2022/06/22 10:05:03;;;;;;;7.30;4.00;;;21.20;99.90;;;;;;5075594;28;20464;-67
2022/06/22 10:07:29;;;;;;;16.48;4.20;;;21.20;99.90;;;;;;5093432;28;20496;-66
2022/06/22 10:10:24;;;;;;;7.90;3.78;;;21.10;99.90;;;;;;5075438;28;20020;-67
2022/06/22 10:13:24;;;;;;;6.63;4.30;;;20.90;99.90;;;;;;5064512;28;20032;-66
2022/06/22 10:16:14;;;;;;;7.95;3.63;;;20.80;99.90;;;;;;5093741;28;20146;-66
2022/06/22 10:18:58;;;;;;;8.98;3.92;;;20.90;99.90;;;;;;5093590;28;20505;-66
2022/06/22 10:21:42;;;;;;;11.82;4.40;;;21.00;99.90;;;;;;5093902;28;20024;-67
2022/06/22 10:24:54;;;;;;;8.43;4.15;;;20.90;99.90;;;;;;5093725;28;20396;-67
2022/06/22 10:27:44;;;;;;;9.68;4.15;;;21.10;99.90;;;;;;5031043;28;20057;-66
2022/06/22 10:30:31;;;;;;;9.38;4.85;;;21.40;99.90;;;;;;5031298;28;20145;-66
2022/06/22 10:33:20;;;;;;;7.40;4.45;;;21.70;99.90;;;;;;5031304;28;20120;-66
2022/06/22 10:36:23;;;;;;;8.23;4.72;;;22.00;99.90;;;;;;5031317;28;20022;-66
2022/06/22 10:39:04;;;;;;;9.30;4.72;;;22.20;99.90;;;;;;5031449;28;20044;-66
2022/06/22 10:45:17;;;;;;;12.55;5.32;;;22.50;99.90;;;;;;5030595;28;20037;-66
2022/06/22 10:48:09;;;;;;;16.15;6.00;;;22.70;99.90;;;;;;5031073;28;20517;-66
2022/06/22 10:50:48;;;;;;;12.63;5.55;;;22.90;99.90;;;;;;5030589;28;20087;-66
2022/06/22 10:53:42;;;;;;;10.93;5.88;;;23.30;99.90;;;;;;5030571;28;20022;-67
2022/06/22 10:56:28;;;;;;;15.52;6.25;;;23.50;99.90;;;;;;5030315;28;20025;-66
2022/06/22 10:59:19;;;;;;;12.32;6.40;;;23.80;99.90;;;;;;5086090;28;20093;-66
2022/06/22 11:01:53;;;;;;;12.50;6.72;;;23.90;99.90;;;;;;5092874;28;20043;-66
2022/06/22 11:04:50;;;;;;;9.38;5.63;;;24.10;99.90;;;;;;5074268;28;20025;-66
2022/06/22 11:07:16;;;;;;;;;;;24.30;99.90;;;;;;5093005;28;20025;-66
2022/06/22 11:09:56;;;;;;;11.85;6.05;;;24.30;99.90;;;;;;5092680;28;19987;-66
2022/06/22 11:12:52;;;;;;;10.95;5.50;;;24.20;99.90;;;;;;5093285;28;20056;-65
2022/06/22 11:15:42;;;;;;;10.98;6.22;;;24.10;99.90;;;;;;5086274;28;20032;-66
2022/06/22 11:18:08;;;;;;;11.00;6.68;;;24.10;99.90;;;;;;5092681;28;20020;-67
2022/06/22 11:20:48;;;;;;;7.82;5.82;;;24.00;99.90;;;;;;5077901;28;20554;-66
2022/06/22 11:23:58;;;;;;;8.68;5.53;;;24.00;99.90;;;;;;5096904;28;20392;-66
2022/06/22 11:33:17;;;;;;;11.27;7.38;;;24.20;99.90;;;;;;5096685;28;20027;-67
2022/06/22 11:35:52;;;;;;;10.73;6.05;;;24.00;99.90;;;;;;5096916;28;20031;-66
2022/06/22 11:38:54;;;;;;;12.57;6.20;;;24.20;99.90;;;;;;5096479;28;20104;-66
2022/06/22 11:41:41;;;;;;;10.52;5.93;;;24.20;99.90;;;;;;5096689;28;20418;-67
2022/06/22 11:44:40;;;;;;;10.60;6.82;;;24.40;99.90;;;;;;5077929;28;20067;-66
2022/06/22 11:47:26;;;;;;;15.02;7.28;;;24.30;99.90;;;;;;5096453;28;20061;-66
2022/06/22 11:49:58;;;;;;;11.20;7.73;;;24.20;99.90;;;;;;5078057;28;20028;-65
2022/06/22 11:52:38;;;;;;;13.10;7.38;;;24.10;99.90;;;;;;5096274;28;20020;-65
2022/06/22 11:55:26;;;;;;;11.45;7.32;;;23.90;99.90;;;;;;5096440;28;20044;-66
2022/06/22 11:58:03;;;;;;;12.05;8.15;;;23.80;99.90;;;;;;5096531;28;20020;-67
2022/06/22 12:00:58;;;;;;;11.98;8.32;;;23.70;99.90;;;;;;5096427;28;20048;-65
2022/06/22 12:03:47;;;;;;;10.95;7.50;;;23.60;99.90;;;;;;5096180;28;20024;-66
2022/06/22 12:06:30;;;;;;;12.45;8.23;;;23.60;99.90;;;;;;5096170;28;20482;-65
2022/06/22 12:09:19;;;;;;;13.68;7.28;;;23.60;99.90;;;;;;5096208;28;20514;-65
2022/06/22 12:11:53;;;;;;;13.88;8.00;;;23.60;99.90;;;;;;5095887;28;20060;-65
2022/06/22 12:15:05;;;;;;;11.73;7.95;;;23.50;99.90;;;;;;5095671;28;20020;-66
2022/06/22 12:17:45;;;;;;;13.05;9.52;;;23.50;99.90;;;;;;5095661;28;20028;-65
2022/06/22 12:20:25;;;;;;;15.40;9.70;;;23.50;99.90;;;;;;5095938;28;20499;-66
2022/06/22 12:23:12;;;;;;;15.63;10.38;;;23.60;99.90;;;;;;5078522;28;20040;-66
2022/06/22 12:25:58;;;;;;;14.02;9.75;;;23.50;99.90;;;;;;5078455;28;20073;-66
2022/06/22 12:28:38;;;;;;;17.13;10.02;;;23.50;99.90;;;;;;5096257;28;20031;-67
2022/06/22 12:31:10;;;;;;;12.15;8.27;;;23.50;99.90;;;;;;5095612;28;20157;-66
2022/06/22 12:33:42;;;;;;;14.20;9.45;;;23.70;99.90;;;;;;5096191;28;20020;-66
2022/06/22 12:36:16;;;;;;;12.23;9.00;;;23.70;99.90;;;;;;5096154;28;20048;-66
2022/06/22 12:38:46;;;;;;;10.45;8.20;;;23.70;99.90;;;;;;5096137;28;20053;-66
2022/06/22 12:41:36;;;;;;;12.43;8.70;;;23.90;99.90;;;;;;5095925;28;20035;-65
2022/06/22 12:44:05;;;;;;;15.20;9.10;;;24.00;99.90;;;;;;5095334;28;20036;-66
2022/06/22 12:46:57;;;;;;;16.88;9.35;;;24.10;99.90;;;;;;5095535;28;20031;-66
2022/06/22 12:49:48;;;;;;;12.02;9.23;;;23.80;99.90;;;;;;5095668;28;20084;-66
2022/06/22 12:52:18;;;;;;;12.80;8.45;;;23.60;99.90;;;;;;5096108;28;20410;-66
2022/06/22 12:54:50;;;;;;;12.10;8.55;;;23.50;99.90;;;;;;5076873;28;20115;-66
2022/06/22 12:57:24;;;;;;;13.68;9.40;;;23.20;99.90;;;;;;5095037;28;20020;-65
2022/06/22 13:00:00;;;;;;;11.55;8.98;;;23.20;99.90;;;;;;5095487;28;20016;-65
2022/06/22 13:02:31;;;;;;;17.33;10.13;;;23.00;99.90;;;;;;5095040;28;20476;-65
2022/06/22 13:05:09;;;;;;;15.60;9.35;;;22.90;99.90;;;;;;5094996;28;20028;-66
2022/06/22 13:07:42;;;;;;;11.75;10.23;;;23.10;99.90;;;;;;5095152;28;20116;-67
2022/06/22 13:10:15;;;;;;;13.30;9.70;;;23.20;99.90;;;;;;5094905;28;20020;-65
2022/06/22 13:13:00;;;;;;;13.68;9.48;;;23.30;99.90;;;;;;5095036;28;20545;-66
2022/06/22 13:15:33;;;;;;;11.40;9.65;;;23.40;99.90;;;;;;5094777;28;20476;-66
2022/06/22 13:18:07;;;;;;;12.82;9.30;;;23.40;99.90;;;;;;5095257;28;20047;-65
2022/06/22 13:20:54;;;;;;;13.25;10.10;;;23.40;99.90;;;;;;5094517;28;20484;-65
2022/06/22 13:23:26;;;;;;;11.82;9.27;;;23.40;99.90;;;;;;5094537;28;20024;-65
2022/06/22 13:26:11;;;;;;;15.35;8.98;;;23.40;99.90;;;;;;5094866;28;20357;-66
2022/06/22 13:28:51;;;;;;;14.98;9.80;;;23.40;99.90;;;;;;5075919;28;20024;-67
2022/06/22 13:31:27;;;;;;;15.70;10.73;;;23.40;99.90;;;;;;5076016;28;20028;-65
2022/06/22 13:34:08;;;;;;;13.32;10.15;;;23.20;99.90;;;;;;5094749;28;20024;-65
2022/06/22 13:37:00;;;;;;;16.25;11.82;;;23.20;99.90;;;;;;5094418;28;20077;-66
2022/06/22 13:39:49;;;;;;;12.43;10.95;;;23.20;99.90;;;;;;5094737;28;20016;-66
2022/06/22 13:42:39;;;;;;;15.95;10.57;;;23.30;99.90;;;;;;5094086;28;20052;-66
2022/06/22 13:45:26;;;;;;;12.98;11.13;;;23.50;99.90;;;;;;5094774;28;20028;-66
2022/06/22 13:48:06;;;;;;;17.58;13.27;;;23.50;99.90;;;;;;5075824;28;20024;-66
2022/06/22 13:51:08;;;;;;;18.20;12.68;;;23.50;99.90;;;;;;5094403;28;20051;-66
2022/06/22 13:54:03;;;;;;;17.30;11.90;;;23.60;99.90;;;;;;5093990;28;20016;-65
2022/06/22 13:56:38;;;;;;;13.65;11.57;;;23.40;99.90;;;;;;5093876;28;20019;-65
2022/06/22 13:59:29;;;;;;;14.82;12.18;;;23.30;99.90;;;;;;5094101;28;20028;-64
2022/06/22 14:02:13;;;;;;;16.02;12.35;;;23.20;99.90;;;;;;5093168;28;20036;-65
2022/06/22 14:04:46;;;;;;;14.93;12.00;;;23.10;99.90;;;;;;5094036;28;20024;-63
2022/06/22 14:07:17;;;;;;;13.60;12.00;;;23.00;99.90;;;;;;5093887;28;20044;-63
2022/06/22 14:10:01;;;;;;;22.05;12.07;;;23.00;99.90;;;;;;5094411;28;20107;-63